Time;durP1;ratioP1;P1;durP2;ratioP2;P2;SDS_P1;SDS_P2;PMS_P1;PMS_P2;Temp;Humidity;BMP_temperature;BMP_pressure;BME280_temperature;BME280_humidity;BME280_pressure;Samples;Min_cycle;Max_cycle;Signal;HPM_P1;HPM_P2
2021/01/20 00:02:20;;;;;;;15.48;6.53;;;1.80;99.90;;;;;;5080784;28;20070;-64
2021/01/20 00:04:47;;;;;;;19.50;8.02;;;1.80;99.90;;;;;;5076807;28;20040;-63
2021/01/20 00:07:13;;;;;;;20.48;6.93;;;1.70;99.90;;;;;;5072482;28;20040;-64
2021/01/20 00:09:40;;;;;;;14.82;6.65;;;1.70;99.90;;;;;;5071154;28;20048;-64
2021/01/20 00:12:07;;;;;;;14.45;5.95;;;1.70;99.90;;;;;;5067976;28;20052;-64
2021/01/20 00:14:34;;;;;;;19.20;7.15;;;1.70;99.90;;;;;;5078788;28;20499;-64
2021/01/20 00:17:01;;;;;;;16.67;6.72;;;1.70;99.90;;;;;;5074288;28;20487;-64
2021/01/20 00:19:28;;;;;;;16.38;6.25;;;1.70;99.90;;;;;;5072474;28;20052;-64
2021/01/20 00:21:54;;;;;;;16.60;6.43;;;1.70;99.90;;;;;;5079745;28;20052;-64
2021/01/20 00:24:21;;;;;;;17.08;6.93;;;1.70;99.90;;;;;;5072631;28;20511;-65
2021/01/20 00:26:47;;;;;;;17.20;6.65;;;1.70;99.90;;;;;;5072326;28;20044;-63
2021/01/20 00:29:14;;;;;;;15.13;5.88;;;1.70;99.90;;;;;;5070634;28;20052;-64
2021/01/20 00:31:41;;;;;;;14.77;6.15;;;1.70;99.90;;;;;;5070925;28;20036;-64
2021/01/20 00:34:08;;;;;;;18.85;6.47;;;1.70;99.90;;;;;;5074461;28;20040;-63
2021/01/20 00:36:36;;;;;;;15.13;6.70;;;1.70;99.90;;;;;;5088451;28;20083;-64
2021/01/20 00:39:03;;;;;;;15.60;6.35;;;1.80;99.90;;;;;;5072181;28;20102;-64
2021/01/20 00:41:31;;;;;;;13.43;6.47;;;1.70;99.90;;;;;;5084903;28;20380;-63
2021/01/20 00:43:58;;;;;;;14.07;6.35;;;1.80;99.90;;;;;;5076310;28;20491;-64
2021/01/20 00:46:25;;;;;;;16.40;6.35;;;1.80;99.90;;;;;;5077589;28;20036;-64
2021/01/20 00:48:51;;;;;;;15.65;6.57;;;1.80;99.90;;;;;;5073261;28;20581;-64
2021/01/20 00:51:18;;;;;;;18.35;7.35;;;1.80;99.90;;;;;;5072986;28;20136;-64
2021/01/20 00:53:45;;;;;;;14.15;7.03;;;1.80;99.90;;;;;;5083892;28;20055;-64
2021/01/20 00:56:12;;;;;;;17.33;6.93;;;1.90;99.90;;;;;;5083870;28;20055;-64
2021/01/20 00:58:40;;;;;;;16.58;6.68;;;1.90;99.90;;;;;;5073179;28;20044;-64
2021/01/20 01:01:07;;;;;;;15.45;6.55;;;2.00;99.90;;;;;;5078061;28;20048;-64
2021/01/20 01:03:34;;;;;;;18.30;6.78;;;2.00;99.90;;;;;;5054370;28;20052;-64
2021/01/20 01:06:01;;;;;;;16.42;6.50;;;2.00;99.90;;;;;;5077675;28;20050;-64
2021/01/20 01:08:27;;;;;;;15.27;6.28;;;2.00;99.90;;;;;;5074538;28;20041;-64
2021/01/20 01:10:58;;;;;;;19.00;7.30;;;1.90;99.90;;;;;;5080529;28;20039;-64
2021/01/20 01:13:45;;;;;;;14.30;5.88;;;1.90;99.90;;;;;;5082346;28;20512;-63
2021/01/20 01:16:36;;;;;;;15.55;7.10;;;2.00;99.90;;;;;;5058518;28;20148;-64
2021/01/20 01:19:03;;;;;;;17.63;6.35;;;2.00;99.90;;;;;;5069791;28;20052;-64
2021/01/20 01:21:30;;;;;;;17.55;6.97;;;1.90;99.90;;;;;;5074078;28;20044;-64
2021/01/20 01:23:57;;;;;;;15.43;6.50;;;1.90;99.90;;;;;;5058544;28;20055;-64
2021/01/20 01:26:24;;;;;;;16.40;6.95;;;1.90;99.90;;;;;;5074087;28;20044;-64
2021/01/20 01:28:50;;;;;;;16.35;7.25;;;1.90;99.90;;;;;;5078644;28;20770;-64
2021/01/20 01:31:24;;;;;;;18.33;6.80;;;1.90;99.90;;;;;;5071550;28;20040;-64
2021/01/20 01:33:51;;;;;;;18.42;7.57;;;1.90;99.90;;;;;;5074684;28;20048;-64
2021/01/20 01:36:20;;;;;;;20.55;7.65;;;1.90;99.90;;;;;;5078276;28;20060;-64
2021/01/20 01:38:48;;;;;;;17.02;6.97;;;1.90;99.90;;;;;;5085821;28;20707;-63
2021/01/20 01:41:24;;;;;;;15.38;6.70;;;1.90;99.90;;;;;;5076967;28;20427;-63
2021/01/20 01:44:03;;;;;;;16.00;6.90;;;1.90;99.90;;;;;;5070875;28;20091;-64
2021/01/20 01:46:42;;;;;;;17.63;7.10;;;1.90;99.90;;;;;;5071740;28;20406;-64
2021/01/20 01:49:35;;;;;;;17.63;8.00;;;2.00;99.90;;;;;;5003600;28;20057;-64
2021/01/20 01:52:03;;;;;;;17.67;7.43;;;2.00;99.90;;;;;;4990757;28;20050;-64
2021/01/20 01:54:44;;;;;;;15.90;6.85;;;2.00;99.90;;;;;;5003130;28;20045;-64
2021/01/20 01:57:31;;;;;;;17.50;6.35;;;2.00;99.90;;;;;;5002278;28;20053;-64
2021/01/20 01:59:59;;;;;;;15.00;6.88;;;2.00;99.90;;;;;;4993194;28;20088;-64
2021/01/20 02:02:40;;;;;;;20.98;7.82;;;2.00;99.90;;;;;;5008041;28;20110;-64
2021/01/20 02:05:13;;;;;;;16.85;6.63;;;2.00;99.90;;;;;;4989668;28;20081;-64
2021/01/20 02:07:44;;;;;;;18.48;7.78;;;2.00;99.90;;;;;;4991848;28;20046;-64
2021/01/20 02:10:13;;;;;;;18.65;7.90;;;2.00;99.90;;;;;;5006979;28;20077;-64
2021/01/20 02:13:00;;;;;;;15.98;7.32;;;2.00;99.90;;;;;;4990908;28;20397;-64
2021/01/20 02:15:57;;;;;;;18.02;7.38;;;2.00;99.90;;;;;;4990331;28;20160;-64
2021/01/20 02:18:30;;;;;;;18.60;7.95;;;2.00;99.90;;;;;;4989789;28;20054;-63
2021/01/20 02:21:33;;;;;;;14.75;6.80;;;2.10;99.90;;;;;;4990628;28;20556;-64
2021/01/20 02:24:47;;;;;;;16.52;7.07;;;2.10;99.90;;;;;;5006971;28;20154;-64
2021/01/20 02:27:55;;;;;;;14.65;6.88;;;2.10;99.90;;;;;;5065465;28;20055;-64
2021/01/20 02:30:24;;;;;;;18.27;7.82;;;2.10;99.90;;;;;;5068451;28;20094;-64
2021/01/20 02:33:00;;;;;;;17.90;7.45;;;2.10;99.90;;;;;;5070251;28;20052;-64
2021/01/20 02:35:57;;;;;;;16.13;7.35;;;2.20;99.90;;;;;;5066376;28;20049;-64
2021/01/20 02:38:27;;;;;;;20.85;7.63;;;2.20;99.90;;;;;;5058092;28;20045;-64
2021/01/20 02:41:08;;;;;;;19.33;7.30;;;2.10;99.90;;;;;;5054933;28;20044;-64
2021/01/20 02:44:04;;;;;;;18.23;7.63;;;2.20;99.90;;;;;;5066299;28;20054;-64
2021/01/20 02:46:41;;;;;;;18.25;8.13;;;2.20;99.90;;;;;;5086107;28;20051;-64
2021/01/20 02:49:17;;;;;;;17.30;7.75;;;2.10;99.90;;;;;;5074360;28;20568;-64
2021/01/20 02:52:03;;;;;;;20.15;7.72;;;2.10;99.90;;;;;;5058797;28;20135;-64
2021/01/20 02:54:52;;;;;;;17.83;7.63;;;2.00;99.90;;;;;;5072241;28;20051;-64
2021/01/20 02:57:27;;;;;;;21.55;7.90;;;2.00;99.90;;;;;;5071477;28;20145;-64
2021/01/20 03:00:03;;;;;;;16.40;7.65;;;2.00;99.90;;;;;;5065064;28;20139;-63
2021/01/20 03:02:46;;;;;;;18.23;7.30;;;2.00;99.90;;;;;;5073240;28;20399;-64
2021/01/20 03:05:16;;;;;;;15.65;7.38;;;2.00;99.90;;;;;;5087189;28;20131;-63
2021/01/20 03:07:43;;;;;;;15.00;6.88;;;2.00;99.90;;;;;;5074433;28;20560;-64
2021/01/20 03:10:11;;;;;;;18.30;8.10;;;2.00;99.90;;;;;;5072975;28;20055;-64
2021/01/20 03:12:38;;;;;;;19.48;8.55;;;2.10;99.90;;;;;;5080814;28;20048;-64
2021/01/20 03:15:28;;;;;;;19.70;8.30;;;2.00;99.90;;;;;;5075057;28;20410;-64
2021/01/20 03:17:54;;;;;;;37.13;12.52;;;2.10;99.90;;;;;;5082020;28;20110;-64
2021/01/20 03:20:21;;;;;;;39.80;14.82;;;2.10;99.90;;;;;;5078434;28;20136;-64
2021/01/20 03:22:48;;;;;;;29.38;12.38;;;2.10;99.90;;;;;;5071701;28;20117;-63
2021/01/20 03:25:14;;;;;;;27.98;11.55;;;2.10;99.90;;;;;;5073821;28;20135;-64
2021/01/20 03:27:41;;;;;;;28.40;11.50;;;2.10;99.90;;;;;;5075886;28;20051;-64
2021/01/20 03:30:09;;;;;;;24.23;10.00;;;2.20;99.90;;;;;;5072812;28;20086;-64
2021/01/20 03:32:35;;;;;;;19.27;9.02;;;2.20;99.90;;;;;;5075049;28;20071;-64
2021/01/20 03:35:03;;;;;;;22.42;8.75;;;2.20;99.90;;;;;;5073159;28;20128;-64
2021/01/20 03:37:30;;;;;;;22.80;8.50;;;2.30;99.90;;;;;;5079715;28;20048;-64
2021/01/20 03:39:56;;;;;;;20.23;8.88;;;2.30;99.90;;;;;;5071654;28;20058;-64
2021/01/20 03:42:23;;;;;;;19.80;8.27;;;2.30;99.90;;;;;;5073636;28;20056;-64
2021/01/20 03:44:49;;;;;;;17.45;8.32;;;2.20;99.90;;;;;;5081168;28;20050;-64
2021/01/20 03:47:16;;;;;;;19.73;9.60;;;2.20;99.90;;;;;;5072542;28;20091;-64
2021/01/20 03:49:42;;;;;;;21.83;8.98;;;2.20;99.90;;;;;;5072832;28;20198;-64
2021/01/20 03:52:09;;;;;;;26.73;9.98;;;2.20;99.90;;;;;;5072766;28;20135;-64
2021/01/20 03:54:35;;;;;;;20.80;8.82;;;2.20;99.90;;;;;;5088001;28;20044;-64
2021/01/20 03:57:03;;;;;;;20.48;9.10;;;2.20;99.90;;;;;;5081995;28;20068;-64
2021/01/20 03:59:30;;;;;;;23.95;9.25;;;2.20;99.90;;;;;;5073098;28;20492;-64
2021/01/20 04:01:58;;;;;;;23.50;9.73;;;2.20;99.90;;;;;;5073362;28;20819;-64
2021/01/20 04:04:26;;;;;;;24.95;9.02;;;2.20;99.90;;;;;;5072112;28;20514;-64
2021/01/20 04:06:52;;;;;;;23.63;9.05;;;2.30;99.90;;;;;;5060116;28;20068;-63
2021/01/20 04:09:19;;;;;;;22.25;9.45;;;2.30;99.90;;;;;;5077288;28;20089;-64
2021/01/20 04:11:45;;;;;;;25.95;9.70;;;2.30;99.90;;;;;;5088324;28;20054;-64
2021/01/20 04:14:12;;;;;;;20.98;9.38;;;2.40;99.90;;;;;;5080930;28;20104;-64
2021/01/20 04:16:41;;;;;;;22.75;9.48;;;2.40;99.90;;;;;;5073717;28;20036;-64
2021/01/20 04:19:08;;;;;;;23.70;9.63;;;2.40;99.90;;;;;;5085952;28;20110;-64
2021/01/20 04:21:35;;;;;;;21.88;8.98;;;2.40;99.90;;;;;;5082522;28;20541;-64
2021/01/20 04:24:01;;;;;;;25.42;9.43;;;2.40;99.90;;;;;;5072846;28;20119;-64
2021/01/20 04:26:28;;;;;;;21.73;9.68;;;2.40;99.90;;;;;;5075260;28;20036;-64
2021/01/20 04:28:55;;;;;;;25.02;9.55;;;2.40;99.90;;;;;;5082112;28;20108;-64
2021/01/20 04:31:21;;;;;;;22.85;10.02;;;2.40;99.90;;;;;;5075107;28;20044;-64
2021/01/20 04:33:48;;;;;;;24.65;10.40;;;2.40;99.90;;;;;;5073291;28;20048;-64
2021/01/20 04:36:14;;;;;;;24.38;10.25;;;2.40;99.90;;;;;;5072663;28;20242;-64
2021/01/20 04:38:41;;;;;;;21.73;9.57;;;2.40;99.90;;;;;;5072099;28;20815;-64
2021/01/20 04:41:07;;;;;;;27.38;10.85;;;2.30;99.90;;;;;;5076365;28;20127;-64
2021/01/20 04:43:34;;;;;;;22.25;9.57;;;2.40;99.90;;;;;;5063158;28;20110;-64
2021/01/20 04:46:01;;;;;;;27.30;10.40;;;2.40;99.90;;;;;;5072605;28;20404;-64
2021/01/20 04:48:33;;;;;;;24.95;10.65;;;2.40;99.90;;;;;;5073276;28;20533;-64
2021/01/20 04:51:03;;;;;;;30.80;12.80;;;2.40;99.90;;;;;;5087843;28;20050;-64
2021/01/20 04:53:35;;;;;;;27.73;12.40;;;2.40;99.90;;;;;;5085119;28;20478;-64
2021/01/20 04:56:11;;;;;;;24.65;10.18;;;2.40;99.90;;;;;;5088104;28;20055;-64
2021/01/20 04:58:38;;;;;;;24.00;9.80;;;2.50;99.90;;;;;;5067673;28;20044;-64
2021/01/20 05:01:05;;;;;;;28.02;11.13;;;2.50;99.90;;;;;;5081615;28;20380;-64
2021/01/20 05:03:32;;;;;;;27.33;11.18;;;2.50;99.90;;;;;;5083516;28;20051;-63
2021/01/20 05:05:59;;;;;;;22.77;9.88;;;2.60;99.90;;;;;;5072312;28;20044;-64
2021/01/20 05:08:25;;;;;;;25.50;9.80;;;2.60;99.90;;;;;;5081514;28;20097;-64
2021/01/20 05:10:52;;;;;;;22.40;9.27;;;2.60;99.90;;;;;;5074941;28;20096;-64
2021/01/20 05:13:37;;;;;;;23.10;10.07;;;2.60;99.90;;;;;;5091501;28;20052;-64
2021/01/20 05:16:04;;;;;;;20.35;10.38;;;2.60;99.90;;;;;;5072285;28;20048;-64
2021/01/20 05:18:46;;;;;;;25.35;9.25;;;2.60;99.90;;;;;;5079165;28;20028;-64
2021/01/20 05:21:19;;;;;;;22.40;9.50;;;2.50;99.90;;;;;;5070525;28;20368;-64
2021/01/20 05:23:46;;;;;;;28.08;11.23;;;2.50;99.90;;;;;;5069250;28;20045;-64
2021/01/20 05:26:12;;;;;;;30.38;12.73;;;2.50;99.90;;;;;;5069957;28;20074;-64
2021/01/20 05:28:39;;;;;;;27.85;11.27;;;2.60;99.90;;;;;;5077148;28;20040;-64
2021/01/20 05:31:06;;;;;;;25.95;10.20;;;2.60;99.90;;;;;;5077941;28;20041;-64
2021/01/20 05:33:40;;;;;;;24.38;9.88;;;2.60;99.90;;;;;;5073552;28;20570;-64
2021/01/20 05:36:09;;;;;;;24.25;10.05;;;2.60;99.90;;;;;;5075676;28;20131;-64
2021/01/20 05:38:42;;;;;;;22.67;10.02;;;2.60;99.90;;;;;;5073702;28;20619;-64
2021/01/20 05:41:26;;;;;;;20.90;9.20;;;2.50;99.90;;;;;;5078509;28;20050;-64
2021/01/20 05:44:08;;;;;;;25.33;9.82;;;2.50;99.90;;;;;;5077470;28;20036;-64
2021/01/20 05:46:37;;;;;;;17.92;8.75;;;2.50;99.90;;;;;;5072314;28;20506;-64
2021/01/20 05:49:05;;;;;;;27.00;10.85;;;2.40;99.90;;;;;;5071718;28;20041;-64
2021/01/20 05:51:42;;;;;;;21.70;9.98;;;2.40;99.90;;;;;;5071384;28;20047;-64
2021/01/20 05:54:10;;;;;;;25.98;10.85;;;2.40;99.90;;;;;;5059150;28;20411;-64
2021/01/20 05:56:37;;;;;;;30.30;11.13;;;2.40;99.90;;;;;;5069867;28;20037;-64
2021/01/20 05:59:09;;;;;;;36.20;15.95;;;2.40;99.90;;;;;;5075093;28;20056;-64
2021/01/20 06:01:39;;;;;;;35.63;14.60;;;2.40;99.90;;;;;;5079172;28;20041;-63
2021/01/20 06:04:06;;;;;;;31.90;13.77;;;2.50;99.90;;;;;;5079980;28;20109;-64
2021/01/20 06:06:35;;;;;;;32.72;13.07;;;2.50;99.90;;;;;;5086378;28;20051;-64
2021/01/20 06:09:03;;;;;;;30.88;10.88;;;2.50;99.90;;;;;;5071246;28;20511;-63
2021/01/20 06:11:29;;;;;;;29.33;11.82;;;2.50;99.90;;;;;;5072276;28;20040;-64
2021/01/20 06:13:56;;;;;;;27.70;12.25;;;2.60;99.90;;;;;;5075858;28;20052;-64
2021/01/20 06:16:25;;;;;;;25.80;10.60;;;2.50;99.90;;;;;;5074076;28;20486;-64
2021/01/20 06:19:03;;;;;;;25.65;11.00;;;2.40;99.90;;;;;;5074310;28;20507;-64
2021/01/20 06:21:30;;;;;;;25.67;11.02;;;2.50;99.90;;;;;;5081258;28;20036;-64
2021/01/20 06:24:05;;;;;;;27.02;11.32;;;2.60;99.90;;;;;;5072866;28;20101;-64
2021/01/20 06:26:36;;;;;;;26.40;11.00;;;2.60;99.90;;;;;;5078402;28;20036;-63
2021/01/20 06:29:07;;;;;;;23.63;10.63;;;2.70;99.90;;;;;;5075280;28;20048;-64
2021/01/20 06:31:42;;;;;;;25.60;11.00;;;2.60;99.90;;;;;;5074312;28;20499;-64
2021/01/20 06:34:08;;;;;;;28.48;11.70;;;2.50;99.90;;;;;;5075237;28;20041;-64
2021/01/20 06:36:37;;;;;;;28.95;10.63;;;2.60;99.90;;;;;;5072665;28;20056;-64
2021/01/20 06:39:31;;;;;;;26.35;10.95;;;2.50;99.90;;;;;;5082773;28;20628;-64
2021/01/20 06:42:00;;;;;;;26.10;10.18;;;2.50;99.90;;;;;;5074007;28;20048;-64
2021/01/20 06:44:27;;;;;;;22.52;10.50;;;2.50;99.90;;;;;;5072909;28;20488;-64
2021/01/20 06:46:56;;;;;;;27.27;11.15;;;2.50;99.90;;;;;;5083076;28;20341;-64
2021/01/20 06:49:29;;;;;;;28.92;11.90;;;2.40;99.90;;;;;;5075823;28;20110;-64
2021/01/20 06:52:05;;;;;;;34.00;13.45;;;2.40;99.90;;;;;;5086665;28;20040;-64
2021/01/20 06:54:35;;;;;;;28.98;13.20;;;2.30;99.90;;;;;;5071721;28;20419;-64
2021/01/20 06:57:01;;;;;;;26.77;11.82;;;2.30;99.90;;;;;;5071504;28;20045;-64
2021/01/20 06:59:32;;;;;;;32.55;12.75;;;2.20;99.90;;;;;;5082091;28;20402;-64
2021/01/20 07:02:08;;;;;;;29.33;12.52;;;2.20;99.90;;;;;;5077270;28;20048;-64
2021/01/20 07:04:38;;;;;;;28.38;11.77;;;2.20;99.90;;;;;;5071767;28;20052;-64
2021/01/20 07:07:07;;;;;;;36.05;14.65;;;2.20;99.90;;;;;;5085409;28;20387;-64
2021/01/20 07:09:49;;;;;;;30.88;13.38;;;2.20;99.90;;;;;;5079270;28;20044;-64
2021/01/20 07:12:25;;;;;;;30.38;12.60;;;2.20;99.90;;;;;;5076117;28;20036;-64
2021/01/20 07:14:52;;;;;;;34.45;13.35;;;2.20;99.90;;;;;;5084723;28;20412;-64
2021/01/20 07:17:20;;;;;;;31.23;13.55;;;2.20;99.90;;;;;;5073799;28;20119;-64
2021/01/20 07:19:49;;;;;;;29.98;11.25;;;2.40;99.90;;;;;;5077673;28;20064;-64
2021/01/20 07:22:17;;;;;;;35.15;12.48;;;2.50;99.90;;;;;;5072658;28;20538;-64
2021/01/20 07:24:45;;;;;;;32.10;11.52;;;2.60;99.90;;;;;;5079106;28;20052;-64
2021/01/20 07:27:13;;;;;;;29.25;11.55;;;2.60;99.90;;;;;;5078144;28;20028;-64
2021/01/20 07:29:40;;;;;;;31.77;11.57;;;2.60;99.90;;;;;;5080898;28;20550;-64
2021/01/20 07:32:08;;;;;;;32.95;11.95;;;2.60;99.90;;;;;;5074690;28;20036;-64
2021/01/20 07:34:43;;;;;;;26.73;11.00;;;2.60;99.90;;;;;;5073443;28;20404;-64
2021/01/20 07:37:15;;;;;;;29.00;11.13;;;2.60;99.90;;;;;;5074189;28;20041;-64
2021/01/20 07:39:43;;;;;;;26.98;10.32;;;2.70;99.90;;;;;;5079165;28;20040;-64
2021/01/20 07:42:10;;;;;;;27.10;10.25;;;2.80;99.90;;;;;;5076290;28;20052;-64
2021/01/20 07:44:46;;;;;;;28.42;10.90;;;2.90;99.90;;;;;;5072882;28;20051;-64
2021/01/20 07:47:13;;;;;;;34.47;14.20;;;3.10;99.90;;;;;;5071668;28;20032;-64
2021/01/20 07:49:56;;;;;;;33.65;14.10;;;3.20;99.90;;;;;;5073141;28;20390;-64
2021/01/20 07:52:22;;;;;;;28.83;12.45;;;3.30;99.90;;;;;;5073947;28;20050;-64
2021/01/20 07:54:49;;;;;;;28.85;11.35;;;3.40;99.90;;;;;;5061365;28;20036;-64
2021/01/20 07:57:21;;;;;;;28.38;10.82;;;3.50;99.90;;;;;;5075119;28;20050;-64
2021/01/20 08:00:03;;;;;;;29.40;10.95;;;3.50;99.90;;;;;;5082035;28;20157;-64
2021/01/20 08:02:57;;;;;;;23.95;11.48;;;3.60;99.90;;;;;;5075732;28;20048;-64
2021/01/20 08:05:33;;;;;;;26.77;11.02;;;3.60;99.90;;;;;;5076196;28;20476;-64
2021/01/20 08:08:04;;;;;;;27.63;11.07;;;3.70;99.90;;;;;;5078783;28;20044;-64
2021/01/20 08:10:31;;;;;;;30.15;12.25;;;3.70;99.90;;;;;;5080646;28;20573;-64
2021/01/20 08:13:00;;;;;;;31.83;11.52;;;3.70;99.90;;;;;;5076039;28;20055;-64
2021/01/20 08:15:31;;;;;;;28.40;11.30;;;3.80;99.90;;;;;;5083015;28;20064;-64
2021/01/20 08:17:59;;;;;;;29.20;12.25;;;3.90;99.90;;;;;;5073859;28;20498;-65
2021/01/20 08:20:31;;;;;;;24.23;10.45;;;4.10;99.90;;;;;;5061900;28;20056;-64
2021/01/20 08:22:59;;;;;;;28.55;11.80;;;4.20;99.90;;;;;;5081325;28;20056;-64
2021/01/20 08:25:26;;;;;;;29.13;10.52;;;4.40;99.90;;;;;;5078040;28;20048;-64
2021/01/20 08:27:52;;;;;;;31.67;11.05;;;4.50;99.90;;;;;;5082046;28;20517;-64
2021/01/20 08:30:29;;;;;;;30.70;12.35;;;4.70;99.90;;;;;;5078273;28;20036;-64
2021/01/20 08:32:57;;;;;;;22.40;9.65;;;4.80;99.90;;;;;;5074805;28;20048;-64
2021/01/20 08:35:36;;;;;;;22.02;10.20;;;5.00;99.90;;;;;;5078124;28;20419;-65
2021/01/20 08:38:04;;;;;;;26.23;11.20;;;5.10;99.90;;;;;;5086143;28;20708;-64
2021/01/20 08:40:30;;;;;;;22.42;9.63;;;5.20;99.30;;;;;;5072679;28;20399;-64
2021/01/20 08:42:57;;;;;;;25.27;10.82;;;5.40;98.50;;;;;;5082503;28;20063;-64
2021/01/20 08:45:39;;;;;;;23.42;9.70;;;5.40;98.50;;;;;;5073543;28;20476;-64
2021/01/20 08:48:09;;;;;;;26.42;10.38;;;5.60;98.30;;;;;;5078152;28;20044;-64
2021/01/20 08:50:37;;;;;;;26.25;9.90;;;5.70;97.90;;;;;;5073286;28;20139;-64
2021/01/20 08:53:08;;;;;;;20.55;10.02;;;5.90;97.60;;;;;;5073455;28;20078;-64
2021/01/20 08:55:49;;;;;;;24.10;10.05;;;6.00;96.80;;;;;;5072300;28;20049;-64
2021/01/20 08:58:32;;;;;;;27.80;10.05;;;6.10;96.50;;;;;;5061299;28;20109;-64
2021/01/20 09:01:22;;;;;;;24.83;10.23;;;6.30;97.00;;;;;;5077455;28;20131;-64
2021/01/20 09:04:01;;;;;;;25.00;9.52;;;6.50;96.10;;;;;;5079474;28;20052;-64
2021/01/20 09:06:28;;;;;;;20.80;9.02;;;6.70;96.10;;;;;;5078405;28;20044;-64
2021/01/20 09:08:55;;;;;;;217.10;53.72;;;6.90;95.40;;;;;;5080011;28;20040;-64
2021/01/20 09:11:22;;;;;;;272.45;64.10;;;7.00;95.20;;;;;;5085449;28;20036;-64
2021/01/20 09:13:56;;;;;;;93.95;28.80;;;7.20;94.40;;;;;;5078891;28;20049;-64
2021/01/20 09:16:27;;;;;;;211.43;54.83;;;7.30;93.70;;;;;;5073216;28;20682;-64
2021/01/20 09:18:54;;;;;;;275.85;84.97;;;7.40;93.90;;;;;;5067569;28;20144;-63
2021/01/20 09:21:21;;;;;;;62.55;24.65;;;7.40;93.90;;;;;;5069825;28;20040;-64
2021/01/20 09:23:51;;;;;;;50.78;21.25;;;7.40;93.70;;;;;;5068763;28;20043;-64
2021/01/20 09:26:18;;;;;;;93.25;41.40;;;7.60;93.90;;;;;;5069780;28;20701;-64
2021/01/20 09:28:44;;;;;;;31.23;14.82;;;7.80;93.70;;;;;;5066143;28;20410;-64
2021/01/20 09:31:11;;;;;;;16.02;7.93;;;8.00;93.40;;;;;;5081114;28;20054;-64
2021/01/20 09:33:37;;;;;;;12.23;5.88;;;8.20;92.70;;;;;;5081251;28;20097;-64
2021/01/20 09:36:04;;;;;;;13.35;6.43;;;8.30;92.10;;;;;;5077011;28;20732;-64
2021/01/20 09:38:31;;;;;;;13.57;6.40;;;8.40;91.70;;;;;;5078906;28;20044;-65
2021/01/20 09:41:01;;;;;;;15.30;6.68;;;8.60;91.10;;;;;;5074509;28;20056;-64
2021/01/20 09:43:28;;;;;;;13.75;5.88;;;8.60;91.00;;;;;;5067870;28;20466;-62
2021/01/20 09:45:55;;;;;;;15.23;6.05;;;8.80;90.40;;;;;;5072325;28;20084;-64
2021/01/20 09:48:22;;;;;;;12.73;6.20;;;8.90;88.80;;;;;;5073410;28;20044;-64
2021/01/20 09:50:49;;;;;;;16.95;6.20;;;8.90;89.40;;;;;;5058152;28;20070;-64
2021/01/20 09:53:15;;;;;;;15.10;5.55;;;8.90;88.70;;;;;;5078473;28;20055;-63
2021/01/20 09:55:42;;;;;;;10.85;5.07;;;8.90;88.10;;;;;;5075586;28;20384;-66
2021/01/20 09:58:09;;;;;;;13.18;5.47;;;9.00;88.10;;;;;;5065793;28;20522;-65
2021/01/20 10:00:36;;;;;;;14.43;6.50;;;9.10;86.40;;;;;;5053747;28;20658;-64
2021/01/20 10:03:06;;;;;;;13.70;5.78;;;9.10;86.60;;;;;;5078483;28;20052;-63
2021/01/20 10:05:34;;;;;;;13.95;5.57;;;9.20;85.90;;;;;;5074711;28;20039;-63
2021/01/20 10:08:00;;;;;;;9.70;5.20;;;9.30;85.90;;;;;;5076693;28;20458;-65
2021/01/20 10:10:27;;;;;;;9.55;4.78;;;9.50;84.70;;;;;;5078168;28;20041;-63
2021/01/20 10:12:54;;;;;;;9.73;4.80;;;9.50;83.90;;;;;;5051733;28;20709;-62
2021/01/20 10:15:23;;;;;;;10.25;5.50;;;9.60;83.70;;;;;;5069324;28;20037;-61
2021/01/20 10:17:51;;;;;;;11.27;4.80;;;9.70;83.20;;;;;;5066470;28;20063;-60
2021/01/20 10:20:19;;;;;;;11.88;5.43;;;9.80;82.60;;;;;;5075959;28;20070;-59
2021/01/20 10:22:45;;;;;;;10.82;4.55;;;10.00;81.90;;;;;;5071944;28;20067;-63
2021/01/20 10:25:13;;;;;;;13.38;6.10;;;10.00;81.00;;;;;;5067944;28;20141;-61
2021/01/20 10:27:39;;;;;;;10.73;4.72;;;10.10;81.30;;;;;;5071812;28;21917;-65
2021/01/20 10:30:06;;;;;;;10.10;5.18;;;10.20;80.20;;;;;;5068633;28;20047;-62
2021/01/20 10:32:33;;;;;;;10.15;4.63;;;10.40;79.90;;;;;;5076007;28;20040;-63
2021/01/20 10:35:00;;;;;;;9.93;5.30;;;10.60;78.50;;;;;;5082554;28;20487;-63
2021/01/20 10:37:26;;;;;;;9.63;3.92;;;10.50;78.70;;;;;;5077262;28;20052;-62
2021/01/20 10:39:58;;;;;;;6.18;3.55;;;10.40;78.50;;;;;;5074028;28;20039;-62
2021/01/20 10:42:24;;;;;;;9.82;4.30;;;10.40;79.20;;;;;;5053462;28;20075;-62
2021/01/20 10:44:51;;;;;;;9.85;4.03;;;10.60;78.10;;;;;;5075184;28;20681;-62
2021/01/20 10:47:18;;;;;;;8.27;3.90;;;10.60;78.40;;;;;;5072787;28;20058;-62
2021/01/20 10:49:45;;;;;;;5.80;2.78;;;10.80;76.90;;;;;;5070205;28;20526;-62
2021/01/20 10:52:11;;;;;;;5.68;3.00;;;10.90;76.30;;;;;;5070698;28;20106;-63
2021/01/20 10:54:38;;;;;;;11.77;3.70;;;10.70;76.50;;;;;;5069139;28;20044;-61
2021/01/20 10:57:05;;;;;;;5.75;3.05;;;10.60;76.60;;;;;;5074006;28;20045;-64
2021/01/20 10:59:41;;;;;;;6.78;2.95;;;10.80;76.20;;;;;;5078268;28;20044;-62
2021/01/20 11:02:09;;;;;;;8.27;3.20;;;10.90;76.20;;;;;;5072494;28;20098;-61
2021/01/20 11:04:36;;;;;;;8.18;3.22;;;11.00;74.80;;;;;;5075090;28;20134;-63
2021/01/20 11:07:03;;;;;;;6.40;2.88;;;11.20;74.70;;;;;;5077258;28;20032;-60
2021/01/20 11:09:30;;;;;;;4.97;2.50;;;11.10;73.90;;;;;;5073159;28;20098;-61
2021/01/20 11:11:58;;;;;;;4.78;2.80;;;11.00;74.20;;;;;;5074558;28;20159;-63
2021/01/20 11:14:25;;;;;;;6.00;2.78;;;11.10;74.10;;;;;;5076855;28;20052;-62
2021/01/20 11:16:53;;;;;;;5.72;2.47;;;11.20;73.40;;;;;;5073226;28;20037;-62
2021/01/20 11:19:20;;;;;;;6.50;2.78;;;11.20;73.60;;;;;;5075644;28;20060;-63
2021/01/20 11:21:46;;;;;;;6.32;3.00;;;11.40;73.80;;;;;;5073182;28;20049;-62
2021/01/20 11:24:17;;;;;;;6.07;2.50;;;11.50;72.90;;;;;;5068973;28;20046;-62
2021/01/20 11:26:45;;;;;;;4.75;2.42;;;11.70;71.90;;;;;;5068603;28;21382;-60
2021/01/20 11:29:13;;;;;;;5.88;2.10;;;11.60;71.20;;;;;;5084523;28;20040;-61
2021/01/20 11:31:40;;;;;;;3.78;1.80;;;11.80;71.50;;;;;;5088871;28;20036;-61
2021/01/20 11:34:07;;;;;;;4.88;2.35;;;11.80;71.10;;;;;;5079508;28;20069;-63
2021/01/20 11:36:33;;;;;;;3.75;1.58;;;11.80;71.20;;;;;;5084906;28;20043;-62
2021/01/20 11:39:00;;;;;;;4.22;1.92;;;11.80;71.00;;;;;;5075286;28;20043;-61
2021/01/20 11:41:26;;;;;;;5.18;1.70;;;11.90;71.10;;;;;;5068055;28;20097;-62
2021/01/20 11:43:53;;;;;;;6.10;1.98;;;12.00;69.50;;;;;;5065244;28;20052;-64
2021/01/20 11:46:22;;;;;;;3.58;1.60;;;11.90;69.50;;;;;;5082133;28;20036;-61
2021/01/20 11:48:49;;;;;;;5.68;2.03;;;12.00;68.90;;;;;;5083560;28;20050;-63
2021/01/20 11:51:16;;;;;;;9.88;2.38;;;12.00;69.20;;;;;;5079648;28;20715;-62
2021/01/20 11:53:43;;;;;;;6.82;2.25;;;12.10;69.20;;;;;;5075531;28;20438;-62
2021/01/20 11:56:09;;;;;;;3.78;1.77;;;12.10;69.20;;;;;;5077495;28;20050;-62
2021/01/20 11:58:36;;;;;;;6.53;2.72;;;12.10;68.50;;;;;;5085320;28;20572;-62
2021/01/20 12:01:03;;;;;;;14.38;5.82;;;12.20;68.50;;;;;;5086644;28;20040;-62
2021/01/20 12:03:30;;;;;;;6.13;3.58;;;12.20;68.80;;;;;;5070352;28;20072;-64
2021/01/20 12:05:56;;;;;;;6.43;2.40;;;12.40;68.20;;;;;;5087660;28;20048;-63
2021/01/20 12:08:24;;;;;;;4.57;3.05;;;12.50;68.20;;;;;;5076102;28;20049;-63
2021/01/20 12:10:51;;;;;;;7.93;3.63;;;12.70;67.00;;;;;;5082360;28;20044;-63
2021/01/20 12:13:21;;;;;;;5.82;2.58;;;12.90;66.40;;;;;;5074504;28;20062;-63
2021/01/20 12:16:01;;;;;;;5.07;2.25;;;12.60;66.90;;;;;;5071056;28;20566;-62
2021/01/20 12:18:28;;;;;;;9.07;4.25;;;12.50;67.30;;;;;;5072710;28;20057;-62
2021/01/20 12:20:55;;;;;;;4.22;2.33;;;12.70;66.80;;;;;;5072077;28;20369;-62
2021/01/20 12:23:21;;;;;;;8.02;3.22;;;12.60;66.50;;;;;;5068681;28;20052;-63
2021/01/20 12:25:48;;;;;;;6.60;2.50;;;12.60;66.80;;;;;;5084355;28;20044;-62
2021/01/20 12:28:14;;;;;;;6.28;1.80;;;12.60;66.20;;;;;;5070282;28;20048;-63
2021/01/20 12:30:41;;;;;;;6.88;2.03;;;12.60;65.70;;;;;;5053063;28;20063;-63
2021/01/20 12:33:07;;;;;;;6.25;2.20;;;12.50;66.40;;;;;;5072326;28;20102;-63
2021/01/20 12:35:34;;;;;;;6.22;2.65;;;12.40;66.60;;;;;;5069904;28;20044;-63
2021/01/20 12:38:00;;;;;;;9.75;2.83;;;12.30;67.20;;;;;;5072992;28;20453;-62
2021/01/20 12:40:27;;;;;;;4.78;2.25;;;12.30;66.90;;;;;;5076515;28;20052;-62
2021/01/20 12:42:53;;;;;;;5.07;1.50;;;12.40;67.10;;;;;;5081270;28;20102;-63
2021/01/20 12:45:20;;;;;;;6.28;2.15;;;12.60;66.10;;;;;;5068636;28;20653;-63
2021/01/20 12:47:47;;;;;;;6.15;2.00;;;12.70;66.20;;;;;;5069656;28;20048;-63
2021/01/20 12:50:14;;;;;;;5.60;1.90;;;12.50;66.20;;;;;;5071546;28;20055;-62
2021/01/20 12:52:41;;;;;;;4.47;2.00;;;12.50;66.40;;;;;;5072073;28;20089;-62
2021/01/20 12:55:09;;;;;;;3.58;1.63;;;12.30;66.90;;;;;;5070260;28;20048;-62
2021/01/20 12:57:36;;;;;;;6.30;2.30;;;12.10;68.00;;;;;;5076111;28;20044;-64
2021/01/20 13:00:04;;;;;;;5.55;1.80;;;12.10;67.80;;;;;;5073052;28;20566;-63